Darstellungsparameter: Aktuell verwendete Einstellungen:
Skalierung der Graphiken ... ?
xyx+y,   Skalierungsfaktor:      Skalierung: Modus: x, Faktor: 1
Darstellungszeitraum ... ?
Vom - - bis: - -   Zeitraum: 14.08.2016 - 14.08.2016
Min/Max/Avg-Anzeige ... ?
Zeige MMA aktuell
Zeige MMA Monat
Zeige MMA alles
Zeige --A aktuell
Zeige --A Monat
Zeige --A alles
Keine MMA-Anzeige
MMA:
Average (ber die Originaldaten)
MMA-Basis: 14.08.2016 - 14.08.2016
Quicknavigation für Darstellung... ?
Tage:      1T, 2T, 3T, 5T -1T -2T -3T -5T +1T +2T +3T +5T
Wochen: 1W, 2W, 3W -1W -2W -3W +1W +2W +3W
Monate: 1M, 3M, 6M -1M -3M -6M +1M +3M +6M
Jahre:    1J, 3J, 5J, 10J -1J -3J -5J -10J +1J +3J +5J +10J
Nutze für die Darstellung ... ?
Originaldaten oder Mittelwerte auf ...
Stundenbasis Tagesbasis Wochenbasis
Monatsbasis Jahresbasis      Datenbasis: Original-Daten
Darstellen als:
Statistik (Auto) Statistik J:M      Darstellung:
Zur Graphik,    zurück zur Übersicht aller Sensoren.
 
Tabellarische Datenbersicht: ?
 
Sensor: Nr:Datum:Temp:Feuchte:Taupunkt:
Aussen-T/F 1 14-08-2016 00:00:00 17.1 C 90 % 15.45 C
2 14-08-2016 00:05:00 16.9 C 90 % 15.25 C
3 14-08-2016 00:10:00 16.8 C 90 % 15.15 C
4 14-08-2016 00:15:00 16.7 C 90 % 15.05 C
5 14-08-2016 00:20:00 16.6 C 90 % 14.95 C
6 14-08-2016 00:25:00 16.6 C 91 % 15.13 C
7 14-08-2016 00:30:00 16.6 C 91 % 15.13 C
8 14-08-2016 00:35:00 16.4 C 91 % 14.93 C
9 14-08-2016 00:40:00 16.3 C 91 % 14.83 C
10 14-08-2016 00:45:00 16.2 C 91 % 14.73 C
11 14-08-2016 00:50:00 16.2 C 91 % 14.73 C
12 14-08-2016 00:55:00 16.1 C 91 % 14.63 C
13 14-08-2016 01:00:00 16.1 C 92 % 14.8 C
14 14-08-2016 01:05:00 15.9 C 92 % 14.6 C
15 14-08-2016 01:10:00 15.9 C 92 % 14.6 C
16 14-08-2016 01:15:00 15.8 C 92 % 14.5 C
17 14-08-2016 01:20:00 15.7 C 92 % 14.4 C
18 14-08-2016 01:25:00 15.7 C 92 % 14.4 C
19 14-08-2016 01:30:00 15.6 C 92 % 14.31 C
20 14-08-2016 01:35:00 15.6 C 92 % 14.31 C
21 14-08-2016 01:40:00 15.5 C 92 % 14.21 C
22 14-08-2016 01:45:00 15.4 C 92 % 14.11 C
23 14-08-2016 01:50:00 15.3 C 93 % 14.18 C
24 14-08-2016 01:55:00 15.3 C 93 % 14.18 C
25 14-08-2016 02:00:00 15.3 C 93 % 14.18 C
Sensor: Nr:Datum:Temp:Feuchte:Taupunkt:
Aussen-T/F 26 14-08-2016 02:05:00 15.3 C 93 % 14.18 C
27 14-08-2016 02:10:00 15.3 C 93 % 14.18 C
28 14-08-2016 02:15:00 15.3 C 93 % 14.18 C
29 14-08-2016 02:20:00 15.2 C 93 % 14.08 C
30 14-08-2016 02:25:00 15.2 C 93 % 14.08 C
31 14-08-2016 02:30:00 15.1 C 93 % 13.98 C
32 14-08-2016 02:35:00 15 C 93 % 13.88 C
33 14-08-2016 02:40:00 14.9 C 93 % 13.78 C
34 14-08-2016 02:45:00 14.8 C 93 % 13.68 C
35 14-08-2016 02:50:00 14.8 C 94 % 13.84 C
36 14-08-2016 02:55:00 14.8 C 94 % 13.84 C
37 14-08-2016 03:00:00 14.8 C 94 % 13.84 C
38 14-08-2016 03:05:00 14.8 C 94 % 13.84 C
39 14-08-2016 03:10:00 14.7 C 94 % 13.74 C
40 14-08-2016 03:15:00 14.6 C 94 % 13.65 C
41 14-08-2016 03:20:00 14.6 C 94 % 13.65 C
42 14-08-2016 03:25:00 14.6 C 94 % 13.65 C
43 14-08-2016 03:30:00 14.6 C 94 % 13.65 C
44 14-08-2016 03:35:00 14.6 C 94 % 13.65 C
45 14-08-2016 03:40:00 14.5 C 94 % 13.55 C
46 14-08-2016 03:45:00 14.4 C 94 % 13.45 C
47 14-08-2016 03:50:00 14.4 C 94 % 13.45 C
48 14-08-2016 03:55:00 14.4 C 94 % 13.45 C
49 14-08-2016 04:00:00 14.3 C 94 % 13.35 C
50 14-08-2016 04:05:00 14.3 C 95 % 13.51 C
Sensor: Nr:Datum:Temp:Feuchte:Taupunkt:
Aussen-T/F 51 14-08-2016 04:10:00 14.3 C 95 % 13.51 C
52 14-08-2016 04:15:00 14.2 C 94 % 13.25 C
53 14-08-2016 04:20:00 14.1 C 94 % 13.15 C
54 14-08-2016 04:25:00 14 C 94 % 13.05 C
55 14-08-2016 04:30:00 14 C 95 % 13.21 C
56 14-08-2016 04:35:00 14 C 95 % 13.21 C
57 14-08-2016 04:40:00 14 C 95 % 13.21 C
58 14-08-2016 04:45:00 14 C 95 % 13.21 C
59 14-08-2016 04:50:00 13.9 C 95 % 13.11 C
60 14-08-2016 04:55:00 13.9 C 95 % 13.11 C
61 14-08-2016 05:00:00 13.9 C 95 % 13.11 C
62 14-08-2016 05:05:00 13.9 C 95 % 13.11 C
63 14-08-2016 05:10:00 13.9 C 95 % 13.11 C
64 14-08-2016 05:15:00 13.9 C 95 % 13.11 C
65 14-08-2016 05:20:00 13.9 C 95 % 13.11 C
66 14-08-2016 05:25:00 14 C 96 % 13.37 C
67 14-08-2016 05:30:00 14 C 95 % 13.21 C
68 14-08-2016 05:35:00 13.9 C 95 % 13.11 C
69 14-08-2016 05:40:00 13.9 C 95 % 13.11 C
70 14-08-2016 05:45:00 13.9 C 95 % 13.11 C
71 14-08-2016 05:50:00 13.8 C 95 % 13.01 C
72 14-08-2016 05:55:00 13.8 C 95 % 13.01 C
73 14-08-2016 06:00:00 13.7 C 95 % 12.91 C
74 14-08-2016 06:05:00 13.6 C 95 % 12.81 C
75 14-08-2016 06:10:00 13.6 C 95 % 12.81 C
Sensor: Nr:Datum:Temp:Feuchte:Taupunkt:
Aussen-T/F 76 14-08-2016 06:15:00 13.4 C 95 % 12.62 C
77 14-08-2016 06:20:00 13.5 C 95 % 12.72 C
78 14-08-2016 06:25:00 13.6 C 95 % 12.81 C
79 14-08-2016 06:30:00 13.6 C 95 % 12.81 C
80 14-08-2016 06:35:00 13.6 C 95 % 12.81 C
81 14-08-2016 06:40:00 13.5 C 95 % 12.72 C
82 14-08-2016 06:45:00 13.6 C 96 % 12.97 C
83 14-08-2016 06:50:00 13.6 C 96 % 12.97 C
84 14-08-2016 06:55:00 13.6 C 96 % 12.97 C
85 14-08-2016 07:00:00 13.7 C 96 % 13.07 C
86 14-08-2016 07:05:00 13.8 C 96 % 13.17 C
87 14-08-2016 07:10:00 13.9 C 96 % 13.27 C
88 14-08-2016 07:15:00 13.9 C 96 % 13.27 C
89 14-08-2016 07:20:00 14 C 96 % 13.37 C
90 14-08-2016 07:25:00 14.1 C 96 % 13.47 C
91 14-08-2016 07:30:00 14.1 C 96 % 13.47 C
92 14-08-2016 07:35:00 14.1 C 96 % 13.47 C
93 14-08-2016 07:40:00 14.2 C 96 % 13.57 C
94 14-08-2016 07:45:00 14.2 C 96 % 13.57 C
95 14-08-2016 07:50:00 14.2 C 96 % 13.57 C
96 14-08-2016 07:55:00 14.2 C 96 % 13.57 C
97 14-08-2016 08:00:00 14.3 C 96 % 13.67 C
98 14-08-2016 08:05:00 14.3 C 96 % 13.67 C
99 14-08-2016 08:10:00 14.3 C 96 % 13.67 C
100 14-08-2016 08:15:00 14.4 C 96 % 13.77 C
Sensor: Nr:Datum:Temp:Feuchte:Taupunkt:
Aussen-T/F 101 14-08-2016 08:20:00 14.4 C 96 % 13.77 C
102 14-08-2016 08:25:00 14.4 C 96 % 13.77 C
103 14-08-2016 08:30:00 14.4 C 96 % 13.77 C
104 14-08-2016 08:35:00 14.5 C 96 % 13.87 C
105 14-08-2016 08:40:00 14.6 C 96 % 13.97 C
106 14-08-2016 08:45:00 14.7 C 96 % 14.07 C
107 14-08-2016 08:50:00 14.7 C 96 % 14.07 C
108 14-08-2016 08:55:00 14.8 C 96 % 14.17 C
109 14-08-2016 09:00:00 14.8 C 96 % 14.17 C
110 14-08-2016 09:05:00 14.9 C 96 % 14.27 C
111 14-08-2016 09:10:00 14.9 C 96 % 14.27 C
112 14-08-2016 09:15:00 15 C 96 % 14.37 C
113 14-08-2016 09:20:00 15.1 C 96 % 14.47 C
114 14-08-2016 09:25:00 15.2 C 96 % 14.57 C
115 14-08-2016 09:30:00 15.3 C 96 % 14.67 C
116 14-08-2016 09:35:00 15.4 C 96 % 14.77 C
117 14-08-2016 09:40:00 15.6 C 96 % 14.96 C
118 14-08-2016 09:45:00 15.7 C 96 % 15.06 C
119 14-08-2016 09:50:00 15.8 C 96 % 15.16 C
120 14-08-2016 09:55:00 15.9 C 96 % 15.26 C
121 14-08-2016 10:00:00 16.1 C 96 % 15.46 C
122 14-08-2016 10:05:00 16.2 C 96 % 15.56 C
123 14-08-2016 10:10:00 16.4 C 95 % 15.6 C
124 14-08-2016 10:15:00 16.6 C 95 % 15.8 C
125 14-08-2016 10:20:00 16.7 C 95 % 15.9 C
Sensor: Nr:Datum:Temp:Feuchte:Taupunkt:
Aussen-T/F 126 14-08-2016 10:25:00 16.8 C 95 % 15.99 C
127 14-08-2016 10:30:00 16.9 C 94 % 15.93 C
128 14-08-2016 10:35:00 17.2 C 94 % 16.23 C
129 14-08-2016 10:40:00 17.3 C 94 % 16.33 C
130 14-08-2016 10:45:00 17.6 C 93 % 16.45 C
131 14-08-2016 10:50:00 17.8 C 93 % 16.65 C
132 14-08-2016 10:55:00 17.9 C 92 % 16.58 C
133 14-08-2016 11:00:00 18.1 C 92 % 16.78 C
134 14-08-2016 11:05:00 18.2 C 92 % 16.88 C
135 14-08-2016 11:10:00 18.3 C 92 % 16.98 C
136 14-08-2016 11:15:00 18.4 C 92 % 17.08 C
137 14-08-2016 11:20:00 18.6 C 90 % 16.93 C
138 14-08-2016 11:25:00 18.9 C 90 % 17.22 C
139 14-08-2016 11:30:00 19.1 C 90 % 17.42 C
140 14-08-2016 11:35:00 19.2 C 90 % 17.52 C
141 14-08-2016 11:40:00 19.3 C 90 % 17.62 C
142 14-08-2016 11:45:00 19.3 C 90 % 17.62 C
143 14-08-2016 11:50:00 19.3 C 89 % 17.44 C
144 14-08-2016 11:55:00 19.6 C 88 % 17.56 C
145 14-08-2016 12:00:00 19.8 C 87 % 17.57 C
146 14-08-2016 12:05:00 20.1 C 85 % 17.5 C
147 14-08-2016 12:10:00 20.3 C 82 % 17.13 C
148 14-08-2016 12:15:00 20.6 C 82 % 17.42 C
149 14-08-2016 12:20:00 20.8 C 82 % 17.61 C
150 14-08-2016 12:25:00 21.1 C 79 % 17.32 C
Sensor: Nr:Datum:Temp:Feuchte:Taupunkt:
Aussen-T/F 151 14-08-2016 12:30:00 21.3 C 78 % 17.31 C
152 14-08-2016 12:35:00 21.6 C 78 % 17.6 C
153 14-08-2016 12:40:00 21.7 C 73 % 16.65 C
154 14-08-2016 12:45:00 21.9 C 75 % 17.27 C
155 14-08-2016 12:50:00 22.2 C 74 % 17.34 C
156 14-08-2016 12:55:00 22.4 C 73 % 17.32 C
157 14-08-2016 13:00:00 22.5 C 72 % 17.2 C
158 14-08-2016 13:05:00 22.6 C 74 % 17.73 C
159 14-08-2016 13:10:00 22.7 C 77 % 18.46 C
160 14-08-2016 13:15:00 22.6 C 77 % 18.36 C
161 14-08-2016 13:20:00 22.3 C 78 % 18.28 C
162 14-08-2016 13:25:00 22.1 C 77 % 17.88 C
163 14-08-2016 13:30:00 22 C 77 % 17.78 C
164 14-08-2016 13:35:00 22.2 C 73 % 17.13 C
165 14-08-2016 13:40:00 22.5 C 72 % 17.2 C
166 14-08-2016 13:45:00 22.8 C 70 % 17.04 C
167 14-08-2016 13:50:00 23.4 C 68 % 17.16 C
168 14-08-2016 13:55:00 23.7 C 64 % 16.49 C
169 14-08-2016 14:00:00 23.8 C 64 % 16.58 C
170 14-08-2016 14:05:00 23.8 C 66 % 17.07 C
171 14-08-2016 14:10:00 23.8 C 67 % 17.3 C
172 14-08-2016 14:15:00 23.7 C 68 % 17.44 C
173 14-08-2016 14:20:00 23.7 C 68 % 17.44 C
174 14-08-2016 14:25:00 23.7 C 66 % 16.97 C
175 14-08-2016 14:30:00 23.8 C 65 % 16.83 C
Sensor: Nr:Datum:Temp:Feuchte:Taupunkt:
Aussen-T/F 176 14-08-2016 14:35:00 23.8 C 66 % 17.07 C
177 14-08-2016 14:40:00 23.9 C 66 % 17.16 C
178 14-08-2016 14:45:00 23.8 C 71 % 18.22 C
179 14-08-2016 14:50:00 23.8 C 66 % 17.07 C
180 14-08-2016 14:55:00 23.9 C 64 % 16.68 C
181 14-08-2016 15:00:00 24.1 C 64 % 16.86 C
182 14-08-2016 15:05:00 24.1 C 68 % 17.82 C
183 14-08-2016 15:10:00 24.2 C 65 % 17.2 C
184 14-08-2016 15:15:00 24.3 C 64 % 17.05 C
185 14-08-2016 15:20:00 24.5 C 64 % 17.24 C
186 14-08-2016 15:25:00 24.7 C 60 % 16.41 C
187 14-08-2016 15:30:00 24.9 C 60 % 16.6 C
188 14-08-2016 15:35:00 25 C 60 % 16.7 C
189 14-08-2016 15:40:00 24.8 C 62 % 17.02 C
190 14-08-2016 15:45:00 24.8 C 64 % 17.53 C
191 14-08-2016 15:50:00 25 C 62 % 17.21 C
192 14-08-2016 15:55:00 25.2 C 61 % 17.14 C
193 14-08-2016 16:00:00 25.5 C 58 % 16.63 C
194 14-08-2016 16:05:00 25.8 C 57 % 16.64 C
195 14-08-2016 16:10:00 25.8 C 55 % 16.07 C
196 14-08-2016 16:15:00 25.6 C 58 % 16.72 C
197 14-08-2016 16:20:00 25.7 C 58 % 16.82 C
198 14-08-2016 16:25:00 26.1 C 57 % 16.92 C
199 14-08-2016 16:30:00 26.5 C 55 % 16.72 C
200 14-08-2016 16:35:00 26.6 C 58 % 17.66 C
Sensor: Nr:Datum:Temp:Feuchte:Taupunkt:
Aussen-T/F 201 14-08-2016 16:40:00 26.8 C 52 % 16.12 C
202 14-08-2016 16:45:00 26.6 C 53 % 16.23 C
203 14-08-2016 16:50:00 26.3 C 54 % 16.25 C
204 14-08-2016 16:55:00 26.2 C 60 % 17.82 C
205 14-08-2016 17:00:00 26.3 C 54 % 16.25 C
206 14-08-2016 17:05:00 26.1 C 53 % 15.77 C
207 14-08-2016 17:10:00 26 C 55 % 16.26 C
208 14-08-2016 17:15:00 26.2 C 54 % 16.16 C
209 14-08-2016 17:20:00 26.3 C 54 % 16.25 C
210 14-08-2016 17:25:00 26.6 C 52 % 15.94 C
211 14-08-2016 17:30:00 26.6 C 51 % 15.63 C
212 14-08-2016 17:35:00 26.4 C 51 % 15.45 C
213 14-08-2016 17:40:00 26.2 C 55 % 16.45 C
214 14-08-2016 17:45:00 26.2 C 53 % 15.87 C
215 14-08-2016 17:50:00 26.2 C 53 % 15.87 C
216 14-08-2016 17:55:00 25.8 C 53 % 15.5 C
217 14-08-2016 18:00:00 25.7 C 54 % 15.7 C
218 14-08-2016 18:05:00 25.7 C 53 % 15.4 C
219 14-08-2016 18:10:00 25.9 C 52 % 15.29 C
220 14-08-2016 18:15:00 26.2 C 52 % 15.57 C
221 14-08-2016 18:20:00 26.4 C 50 % 15.14 C
222 14-08-2016 18:25:00 26.4 C 51 % 15.45 C
223 14-08-2016 18:30:00 26.2 C 50 % 14.96 C
224 14-08-2016 18:35:00 25.8 C 51 % 14.9 C
225 14-08-2016 18:40:00 25.6 C 53 % 15.31 C
Sensor: Nr:Datum:Temp:Feuchte:Taupunkt:
Aussen-T/F 226 14-08-2016 18:45:00 25.3 C 52 % 14.74 C
227 14-08-2016 18:50:00 25.1 C 53 % 14.85 C
228 14-08-2016 18:55:00 25 C 55 % 15.33 C
229 14-08-2016 19:00:00 25.1 C 54 % 15.14 C
230 14-08-2016 19:05:00 25.1 C 54 % 15.14 C
231 14-08-2016 19:10:00 24.8 C 55 % 15.15 C
232 14-08-2016 19:15:00 24.6 C 57 % 15.52 C
233 14-08-2016 19:20:00 24.4 C 57 % 15.33 C
234 14-08-2016 19:25:00 24.3 C 57 % 15.24 C
235 14-08-2016 19:30:00 24.1 C 58 % 15.32 C
236 14-08-2016 19:35:00 24 C 59 % 15.5 C
237 14-08-2016 19:40:00 23.9 C 59 % 15.4 C
238 14-08-2016 19:45:00 23.9 C 60 % 15.66 C
239 14-08-2016 19:50:00 23.8 C 59 % 15.31 C
240 14-08-2016 19:55:00 23.8 C 60 % 15.57 C
241 14-08-2016 20:00:00 23.8 C 59 % 15.31 C
242 14-08-2016 20:05:00 23.8 C 59 % 15.31 C
243 14-08-2016 20:10:00 23.7 C 60 % 15.48 C
244 14-08-2016 20:15:00 23.7 C 60 % 15.48 C
245 14-08-2016 20:20:00 23.6 C 61 % 15.64 C
246 14-08-2016 20:25:00 23.4 C 62 % 15.71 C
247 14-08-2016 20:30:00 23.3 C 63 % 15.86 C
248 14-08-2016 20:35:00 23.2 C 63 % 15.77 C
249 14-08-2016 20:40:00 23 C 63 % 15.58 C
250 14-08-2016 20:45:00 22.9 C 64 % 15.73 C
Sensor: Nr:Datum:Temp:Feuchte:Taupunkt:
Aussen-T/F 251 14-08-2016 20:50:00 22.8 C 65 % 15.88 C
252 14-08-2016 20:55:00 22.6 C 66 % 15.93 C
253 14-08-2016 21:00:00 22.4 C 66 % 15.74 C
254 14-08-2016 21:05:00 22.3 C 67 % 15.88 C
255 14-08-2016 21:10:00 22.1 C 69 % 16.15 C
256 14-08-2016 21:15:00 21.8 C 69 % 15.86 C
257 14-08-2016 21:20:00 21.6 C 71 % 16.12 C
258 14-08-2016 21:25:00 21.2 C 73 % 16.17 C
259 14-08-2016 21:30:00 20.8 C 74 % 16 C
260 14-08-2016 21:35:00 20.4 C 75 % 15.82 C
261 14-08-2016 21:40:00 20.1 C 77 % 15.94 C
262 14-08-2016 21:45:00 19.7 C 78 % 15.76 C
263 14-08-2016 21:50:00 19.5 C 80 % 15.96 C
264 14-08-2016 21:55:00 19.4 C 80 % 15.86 C
265 14-08-2016 22:00:00 19.3 C 80 % 15.76 C
266 14-08-2016 22:05:00 19.1 C 81 % 15.76 C
267 14-08-2016 22:10:00 19 C 81 % 15.67 C
268 14-08-2016 22:15:00 18.9 C 81 % 15.57 C
269 14-08-2016 22:20:00 18.8 C 82 % 15.66 C
270 14-08-2016 22:25:00 18.7 C 82 % 15.57 C
271 14-08-2016 22:30:00 18.5 C 83 % 15.56 C
272 14-08-2016 22:35:00 18.3 C 83 % 15.36 C
273 14-08-2016 22:40:00 18.2 C 84 % 15.45 C
274 14-08-2016 22:45:00 18.1 C 84 % 15.35 C
275 14-08-2016 22:50:00 17.9 C 85 % 15.34 C
Sensor: Nr:Datum:Temp:Feuchte:Taupunkt:
Aussen-T/F 276 14-08-2016 22:55:00 17.9 C 85 % 15.34 C
277 14-08-2016 23:00:00 17.8 C 86 % 15.43 C
278 14-08-2016 23:05:00 17.8 C 86 % 15.43 C
279 14-08-2016 23:10:00 17.7 C 86 % 15.33 C
280 14-08-2016 23:15:00 17.7 C 86 % 15.33 C
281 14-08-2016 23:20:00 17.7 C 86 % 15.33 C
282 14-08-2016 23:25:00 17.6 C 86 % 15.23 C
283 14-08-2016 23:30:00 17.6 C 86 % 15.23 C
284 14-08-2016 23:35:00 17.6 C 86 % 15.23 C
285 14-08-2016 23:40:00 17.5 C 86 % 15.13 C
286 14-08-2016 23:45:00 17.5 C 87 % 15.31 C
287 14-08-2016 23:50:00 17.5 C 87 % 15.31 C
288 14-08-2016 23:55:00 17.5 C 87 % 15.31 C

Legende:
   Min
   Max


Maximal/Minimal-Werte vom 14.08.2016 - 14.08.2016

Sensor Min Max Avg
Temp
(Aussen-T/F)
13.4 °C
14-08-2016  06:15:00
26.8 °C
14-08-2016  16:40:00
19.09 °C
Feuchte
(Aussen-T/F)
50 %
14-08-2016  18:20:00
96 %
14-08-2016  05:25:00
80.51 %
Taupunkt
(Aussen-T/F)
12.62 C
14-08-2016  06:15:00
18.46 C
14-08-2016  13:10:00
15.2 C

Die Daten stammen von einer Davis Vantage Pro 2 Wetter-Station und werden unter Linux mit der Software wview2wettercgi und aufbereitet. Alle Angaben erfolgen ohne Gewähr für ihre Vollständigkeit oder Richtigkeit.
Kontakt: Rainer Krienke krienke@uni-koblenz.de . Meine Webseiten an der Uni Koblenz oder privat.
Version: $Revision: 0.78 $